AirNav   Everest Fuels
 
 1062 users online  

9II4 Cruzan Field Airport
Arcadia, Indiana, USA

GOING TO ARCADIA?


FAA INFORMATION EFFECTIVE 01 DECEMBER 2022

Location

FAA Identifier: 9II4
Lat/Long: 40-10-21.0000N 085-56-41.0000W
40-10.350000N 085-56.683333W
40.1725000,-85.9447222
(estimated)
Elevation: 845 ft. / 258 m (estimated)
Variation: 03W (1990)
From city: 4 miles E of ARCADIA, IN
Time zone: UTC -5 (UTC -4 during Daylight Saving Time)
Zip code: 46034

Airport Operations

Airport use: Private use. Permission required prior to landing
Activation date: 11/1992
Control tower: no
ARTCC: CHICAGO CENTER
FSS: TERRE HAUTE FLIGHT SERVICE STATION
Attendance: UNATNDD
Wind indicator: yes
Segmented circle: no

Airport Communications

WX AWOS-3 at UMP (15 nm S): 119.375 (317-842-3911)
WX AWOS-3 at AID (16 nm E): 128.55 (765-442-1245)
WX AWOS-3PT at TYQ (16 nm SW): 120.725 (317-769-3154)
WX AWOS-3 at MQJ (20 nm S): 124.175 (317-335-3037)

Nearby radio navigation aids

VOR radial/distance  VOR name  Freq  Var
OKKr171/21.9KOKOMO VORTAC113.5005W
MZZr215/22.8MARION VOR/DME108.6003W
MIEr264/25.5MUNCIE VOR/DME114.4003W
VHPr041/29.0BRICKYARD VORTAC116.3001E
GUSr164/29.9GRISSOM VORTAC108.4502W
SHBr349/32.9SHELBYVILLE VOR/DME116.1501E

 
NDB name  Hdg/Dist  Freq  Var  ID
METROPOLITAN022/14.933803WUMP ..- -- .--.
NEW CASTLE307/33.738506WUWL ..- .-- .-..

Airport Services

Runway Information

Runway 9/27

Dimensions: 3300 x 70 ft. / 1006 x 21 m
Surface: turf
RUNWAY 9  RUNWAY 27
Latitude: 40-10.350000N
Longitude: 085-56.683333W
Elevation: 845.0 ft.
Traffic pattern: leftleft
Displaced threshold: no560 ft.
Obstructions: none35 ft. bldg, 140 ft. from runway

Airport Ownership and Management from official FAA records

Ownership: Privately-owned
Owner: ROBERT E. CRUZAN II
26410 S.R. 213
ARCADIA, IN 46030
Phone 317-439-0800
Manager: ROBERT E. CRUZAN II
26410 S.R. 213
ARCADIA, IN 46030
Phone 317-439-0800

Airport Operational Statistics

Aircraft based on the field: 4
Single engine airplanes: 1
Ultralights: 3
    

Additional Remarks

FOR CD CTC CHICAGO ARTCC AT 630-906-8921.

Instrument Procedures

There are no published instrument procedures at 9II4.

Some nearby airports with instrument procedures:

5I4 - Sheridan Airport (12 nm W)
KUMP - Indianapolis Metro Airport (15 nm S)
KAID - Anderson Municipal Airport-Darlington Field (16 nm E)
KTYQ - Indianapolis Executive Airport (16 nm SW)
KMQJ - Indianapolis Regional Airport (20 nm S)
 
Loc | Ops | Rwys | IFR | FBO | Links
Com | Nav | Svcs | Stats | Notes
Area around 9II4 (Cruzan Field Airport)
 
Road maps at: MapQuest Bing Google
 
Aerial photo
No photo
 
Sectional chart

 
Airport distance calculator
Flying to Cruzan Field Airport? Find the distance to fly.

From to 9II4

Sunrise and sunset
Times for 08-Dec-2022
 Local
(UTC-5)
 Zulu
(UTC)
Morning civil twilight07:2412:24
Sunrise07:5512:55
Sunset17:1722:17
Evening civil twilight17:4722:47

Current date and time
Zulu (UTC)  08-Dec-2022 13:19:17
Local (UTC-5)  08-Dec-2022 08:19:17
 
METAR
KUMP 
15nm S 
081255Z AUTO 00000KT 7SM SCT018 OVC095 06/05 A3034 RMK AO2 T00560050
KAID 
15nm E 
081255Z AUTO 00000KT 5SM BR BKN100 OVC120 04/02 A3036 RMK AO2 T00380020
KTYQ 
16nm SW 
081255Z AUTO 06005KT 4SM BR SCT100 OVC110 04/03 A3034 RMK AO2 T00350028
KMQJ 
20nm S 
081255Z AUTO 05006KT 5SM SCT017 OVC100 04/04 A3035 RMK AO1
KOKK 
22nm N 
081256Z AUTO 05008KT 4SM HZ OVC020 03/ A3035 RMK AO2 SLP282 T0033
KMZZ 
23nm NE 
081255Z AUTO 06007KT 5SM BR OVC020 03/02 A3036 RMK AO2 T00330021
KMIE 
25nm E 
081253Z 05006KT 6SM HZ OVC017 05/02 A3036 RMK AO2 SLP282 T00500022
KEYE 
26nm SW 
081304Z AUTO 08004KT 5SM BR FEW017 SCT085 OVC110 06/04 A3031 RMK AO2 T00560039
KFKR 
29nm W 
081255Z AUTO 06009KT 3SM BR FEW019 SCT080 OVC110 03/03 A3031 RMK AO2
KGUS 
29nm N 
081256Z 07008KT 10SM OVC020 03/01 A3032 RMK SLP278 WND DATA ESTMTD T00330005 $
TAF
KGUS 
29nm N 
080031Z 0800/0903 VRB06KT 9999 SCT020 QNH3024INS TEMPO 0801/0803 OVC015 BECMG 0803/0804 VRB06KT 2400 BR BKN008 OVC012 QNH3028INS BECMG 0813/0814 VRB06KT 9999 NSW OVC012 QNH3029INS BECMG 0901/0902 07006KT 9000 BR BKN005 OVC012 QNH3029INS TX07/0820Z TN01/0813Z LAST NO AMDS AFT 0804 NEXT 0813
KIND 
31nm SW 
081124Z 0812/0918 03006KT 6SM BR BKN018 OVC100 FM081500 06007KT 4SM -SHRA BR BKN015 OVC070 FM081900 07008KT 6SM -DZ BR SCT015 BKN025 FM090300 07007KT 4SM BR BKN010 FM091200 09010KT 6SM -RA BR BKN015
NOTAMs
Click for the latest NOTAMs
NOTAMs are issued by the DoD/FAA and will open in a separate window not controlled by AirNav.

 

 
 

Would you like to see your business listed on this page?

 If your business provides an interesting product or service to pilots, flight crews, aircraft, or users of the Cruzan Field Airport, you should consider listing it here.  To start the listing process, click on the button below
 
Add a business
 

Other Pages about Cruzan Field Airport

Update a link
 
Copyright © AirNav, LLC. All rights reserved. Privacy Policy  Contact